Time;durP1;ratioP1;P1;durP2;ratioP2;P2;SDS_P1;SDS_P2;PMS_P1;PMS_P2;Temp;Humidity;BMP_temperature;BMP_pressure;BME280_temperature;BME280_humidity;BME280_pressure;Samples;Min_cycle;Max_cycle;Signal;HPM_P1;HPM_P2
2023/03/02 00:01:07;;;;;;;4.45;2.20;;;;;;;;;;5053841;28;20060;-64
2023/03/02 00:03:38;;;;;;;5.13;2.15;;;;;;;;;;5045223;28;20083;-64
2023/03/02 00:06:04;;;;;;;6.72;2.90;;;;;;;;;;5054289;28;20045;-64
2023/03/02 00:08:31;;;;;;;5.60;2.70;;;;;;;;;;5042961;28;20047;-64
2023/03/02 00:11:00;;;;;;;3.23;2.37;;;;;;;;;;5053018;28;20056;-64
2023/03/02 00:13:28;;;;;;;4.80;2.60;;;;;;;;;;5041945;28;20052;-64
2023/03/02 00:15:54;;;;;;;6.95;3.05;;;;;;;;;;5053684;28;20060;-64
2023/03/02 00:18:20;;;;;;;5.47;3.58;;;;;;;;;;5039752;28;20066;-64
2023/03/02 00:20:47;;;;;;;4.40;2.75;;;;;;;;;;5053279;28;20532;-64
2023/03/02 00:23:14;;;;;;;4.07;2.70;;;;;;;;;;5045341;28;20156;-64
2023/03/02 00:25:40;;;;;;;6.40;3.20;;;;;;;;;;5054001;28;20071;-64
2023/03/02 00:28:06;;;;;;;4.70;2.50;;;;;;;;;;5036555;28;20046;-64
2023/03/02 00:30:33;;;;;;;4.32;2.70;;;;;;;;;;5025311;28;20045;-64
2023/03/02 00:32:59;;;;;;;4.93;2.80;;;;;;;;;;5038510;28;20046;-64
2023/03/02 00:35:25;;;;;;;6.40;3.10;;;;;;;;;;5049605;28;20102;-64
2023/03/02 00:37:52;;;;;;;6.05;2.85;;;;;;;;;;5046335;28;20045;-64
2023/03/02 00:40:18;;;;;;;5.40;3.05;;;;;;;;;;5048473;28;20045;-63
2023/03/02 00:42:45;;;;;;;5.80;3.30;;;;;;;;;;5042367;28;20053;-63
2023/03/02 00:45:11;;;;;;;5.63;3.10;;;;;;;;;;5042897;28;20044;-63
2023/03/02 00:47:37;;;;;;;6.95;3.25;;;;;;;;;;5045930;28;20048;-64
2023/03/02 00:50:05;;;;;;;;;;;;;;;;;;5046136;28;20079;-64
2023/03/02 00:52:32;;;;;;;6.63;3.45;;;;;;;;;;5048032;28;19921;-63
2023/03/02 00:54:58;;;;;;;6.00;3.38;;;;;;;;;;5044331;28;20061;-64
2023/03/02 00:57:25;;;;;;;6.30;3.58;;;;;;;;;;5047414;28;20053;-63
2023/03/02 00:59:51;;;;;;;4.65;3.60;;;;;;;;;;5031747;28;20083;-63
2023/03/02 01:02:20;;;;;;;5.45;3.95;;;;;;;;;;5048598;28;20045;-64
2023/03/02 01:04:47;;;;;;;5.18;3.83;;;;;;;;;;5048298;28;20053;-64
2023/03/02 01:07:14;;;;;;;7.68;4.13;;;;;;;;;;5050858;28;20087;-63
2023/03/02 01:09:41;;;;;;;8.48;4.40;;;;;;;;;;5045412;28;20501;-63
2023/03/02 01:12:10;;;;;;;6.85;4.43;;;;;;;;;;5051636;28;20049;-64
2023/03/02 01:14:37;;;;;;;6.38;3.95;;;;;;;;;;5041861;28;20080;-64
2023/03/02 01:17:05;;;;;;;7.07;4.40;;;;;;;;;;5052793;28;20051;-64
2023/03/02 01:19:31;;;;;;;6.38;4.15;;;;;;;;;;5039213;28;20055;-64
2023/03/02 01:21:58;;;;;;;7.03;4.60;;;;;;;;;;5052864;28;20041;-64
2023/03/02 01:24:24;;;;;;;7.10;4.70;;;;;;;;;;5043769;28;20045;-63
2023/03/02 01:26:51;;;;;;;6.07;3.97;;;;;;;;;;5051726;28;20481;-63
2023/03/02 01:29:17;;;;;;;5.75;4.55;;;;;;;;;;5034875;28;20048;-64
2023/03/02 01:31:44;;;;;;;6.43;4.25;;;;;;;;;;5052552;28;20045;-64
2023/03/02 01:34:10;;;;;;;9.63;5.03;;;;;;;;;;5041691;28;20053;-64
2023/03/02 01:36:37;;;;;;;8.43;4.38;;;;;;;;;;5052455;28;20503;-63
2023/03/02 01:39:03;;;;;;;8.20;4.30;;;;;;;;;;5031448;28;20497;-63
2023/03/02 01:41:30;;;;;;;5.70;3.72;;;;;;;;;;5052310;28;20049;-63
2023/03/02 01:43:56;;;;;;;5.78;4.15;;;;;;;;;;5039979;28;20045;-63
2023/03/02 01:46:27;;;;;;;4.82;3.90;;;;;;;;;;5051269;28;20433;-63
2023/03/02 01:48:59;;;;;;;5.18;3.58;;;;;;;;;;5038230;28;20085;-63
2023/03/02 01:51:26;;;;;;;5.40;3.78;;;;;;;;;;5052460;28;20053;-63
2023/03/02 01:53:55;;;;;;;6.65;3.60;;;;;;;;;;5038232;28;20063;-63
2023/03/02 01:56:24;;;;;;;6.80;4.30;;;;;;;;;;5052036;28;20059;-63
2023/03/02 01:58:53;;;;;;;7.35;4.22;;;;;;;;;;5036713;28;20400;-63
2023/03/02 02:01:20;;;;;;;5.03;3.60;;;;;;;;;;5051698;28;20048;-63
2023/03/02 02:03:49;;;;;;;5.90;4.00;;;;;;;;;;5042783;28;20059;-63
2023/03/02 02:06:21;;;;;;;5.80;4.40;;;;;;;;;;5051707;28;20045;-63
2023/03/02 02:08:49;;;;;;;6.10;3.55;;;;;;;;;;5045565;28;20056;-63
2023/03/02 02:11:16;;;;;;;6.43;3.90;;;;;;;;;;5051781;28;20508;-63
2023/03/02 02:13:42;;;;;;;6.35;3.90;;;;;;;;;;5038882;28;20051;-63
2023/03/02 02:16:09;;;;;;;4.43;3.55;;;;;;;;;;5051430;28;20060;-63
2023/03/02 02:18:37;;;;;;;6.35;3.75;;;;;;;;;;5043982;28;20106;-63
2023/03/02 02:21:04;;;;;;;;;;;;;;;;;;5051747;28;20132;-63
2023/03/02 02:23:56;;;;;;;6.07;3.63;;;;;;;;;;5042001;28;20372;-64
2023/03/02 02:26:28;;;;;;;5.90;3.97;;;;;;;;;;5042619;28;20049;-64
2023/03/02 02:28:56;;;;;;;7.05;4.07;;;;;;;;;;5042050;28;20051;-64
2023/03/02 02:31:39;;;;;;;7.63;3.88;;;;;;;;;;5051931;28;20381;-64
2023/03/02 02:34:10;;;;;;;6.68;3.80;;;;;;;;;;5040926;28;20444;-63
2023/03/02 02:36:38;;;;;;;6.32;4.10;;;;;;;;;;5051271;28;20059;-63
2023/03/02 02:39:07;;;;;;;6.00;3.97;;;;;;;;;;5039952;28;20400;-64
2023/03/02 02:41:35;;;;;;;6.30;3.67;;;;;;;;;;5051307;28;20400;-63
2023/03/02 02:44:01;;;;;;;7.20;4.03;;;;;;;;;;5028326;28;20072;-63
2023/03/02 02:46:28;;;;;;;7.05;3.78;;;;;;;;;;5050926;28;20053;-63
2023/03/02 02:48:54;;;;;;;6.40;3.80;;;;;;;;;;5037992;28;20056;-63
2023/03/02 02:51:24;;;;;;;6.35;3.80;;;;;;;;;;5051398;28;20127;-63
2023/03/02 02:53:57;;;;;;;5.05;3.67;;;;;;;;;;5025326;28;20058;-63
2023/03/02 02:56:29;;;;;;;6.63;4.20;;;;;;;;;;5051374;28;20163;-64
2023/03/02 02:58:58;;;;;;;6.35;4.30;;;;;;;;;;5024070;28;20054;-63
2023/03/02 03:01:25;;;;;;;5.80;4.45;;;;;;;;;;5050811;28;20047;-64
2023/03/02 03:03:53;;;;;;;5.72;4.25;;;;;;;;;;5042167;28;20385;-64
2023/03/02 03:06:24;;;;;;;5.70;4.50;;;;;;;;;;5051177;28;20045;-63
2023/03/02 03:08:54;;;;;;;6.43;4.43;;;;;;;;;;5044511;28;20068;-63
2023/03/02 03:11:22;;;;;;;6.00;4.68;;;;;;;;;;5051290;28;20053;-63
2023/03/02 03:13:53;;;;;;;6.45;4.22;;;;;;;;;;5043678;28;20068;-63
2023/03/02 03:16:19;;;;;;;6.80;4.32;;;;;;;;;;5050777;28;20408;-63
2023/03/02 03:18:48;;;;;;;7.88;4.80;;;;;;;;;;5037203;28;20299;-63
2023/03/02 03:21:17;;;;;;;7.82;5.40;;;;;;;;;;5050854;28;20444;-64
2023/03/02 03:23:43;;;;;;;6.43;5.10;;;;;;;;;;5035259;28;20041;-63
2023/03/02 03:26:10;;;;;;;5.75;4.28;;;;;;;;;;5050717;28;20453;-63
2023/03/02 03:28:36;;;;;;;7.18;5.38;;;;;;;;;;5041246;28;20040;-63
2023/03/02 03:31:03;;;;;;;9.10;5.38;;;;;;;;;;5052077;28;20057;-63
2023/03/02 03:33:29;;;;;;;8.13;5.57;;;;;;;;;;5040240;28;20054;-63
2023/03/02 03:35:55;;;;;;;9.25;5.95;;;;;;;;;;5049846;28;20055;-63
2023/03/02 03:38:22;;;;;;;8.48;6.18;;;;;;;;;;5029958;28;20053;-63
2023/03/02 03:40:48;;;;;;;6.57;5.90;;;;;;;;;;5051152;28;20052;-63
2023/03/02 03:43:15;;;;;;;9.38;5.82;;;;;;;;;;5040203;28;20046;-63
2023/03/02 03:45:41;;;;;;;9.73;6.07;;;;;;;;;;5048970;28;20207;-63
2023/03/02 03:48:07;;;;;;;8.20;5.70;;;;;;;;;;5040591;28;20049;-64
2023/03/02 03:50:34;;;;;;;8.30;5.82;;;;;;;;;;5050715;28;20053;-64
2023/03/02 03:53:00;;;;;;;6.57;5.47;;;;;;;;;;5045482;28;20046;-64
2023/03/02 03:55:29;;;;;;;7.45;5.15;;;;;;;;;;5048445;28;20049;-64
2023/03/02 03:57:55;;;;;;;7.30;5.40;;;;;;;;;;5045920;28;20080;-64
2023/03/02 04:00:22;;;;;;;7.18;5.40;;;;;;;;;;5047660;28;20518;-64
2023/03/02 04:02:49;;;;;;;6.70;5.32;;;;;;;;;;5045538;28;20052;-64
2023/03/02 04:05:16;;;;;;;6.30;5.40;;;;;;;;;;5053962;28;20386;-64
2023/03/02 04:07:42;;;;;;;7.05;5.22;;;;;;;;;;5047638;28;20045;-64
2023/03/02 04:10:09;;;;;;;8.32;5.18;;;;;;;;;;5040526;28;20124;-63
2023/03/02 04:12:37;;;;;;;8.77;5.70;;;;;;;;;;5045736;28;20416;-63
2023/03/02 04:15:04;;;;;;;8.48;5.20;;;;;;;;;;5050546;28;20052;-63
2023/03/02 04:17:31;;;;;;;6.72;5.53;;;;;;;;;;5044370;28;20053;-63
2023/03/02 04:19:58;;;;;;;7.15;5.85;;;;;;;;;;5053901;28;20496;-63
2023/03/02 04:22:25;;;;;;;11.03;6.33;;;;;;;;;;5049735;28;20112;-63
2023/03/02 04:24:51;;;;;;;10.13;6.53;;;;;;;;;;5051011;28;20270;-63
2023/03/02 04:27:18;;;;;;;7.03;6.20;;;;;;;;;;5050746;28;20053;-63
2023/03/02 04:29:45;;;;;;;8.48;6.50;;;;;;;;;;5042575;28;20052;-63
2023/03/02 04:32:13;;;;;;;10.43;5.95;;;;;;;;;;5051975;28;20507;-63
2023/03/02 04:34:40;;;;;;;8.90;6.22;;;;;;;;;;5026673;28;20146;-63
2023/03/02 04:37:06;;;;;;;6.93;6.20;;;;;;;;;;5052638;28;20049;-63
2023/03/02 04:39:32;;;;;;;7.18;6.47;;;;;;;;;;5051942;28;20127;-63
2023/03/02 04:41:59;;;;;;;7.95;6.18;;;;;;;;;;5053448;28;20048;-63
2023/03/02 04:44:25;;;;;;;6.63;5.82;;;;;;;;;;5049663;28;20445;-63
2023/03/02 04:46:51;;;;;;;6.47;5.55;;;;;;;;;;5053631;28;20044;-63
2023/03/02 04:49:18;;;;;;;6.82;5.72;;;;;;;;;;5048948;28;20049;-63
2023/03/02 04:51:46;;;;;;;6.45;5.68;;;;;;;;;;5053558;28;20106;-63
2023/03/02 04:54:17;;;;;;;7.45;6.07;;;;;;;;;;5047583;28;20090;-63
2023/03/02 04:56:47;;;;;;;7.60;5.93;;;;;;;;;;5053322;28;20441;-63
2023/03/02 04:59:14;;;;;;;5.85;5.32;;;;;;;;;;5046776;28;20455;-63
2023/03/02 05:01:41;;;;;;;6.05;5.45;;;;;;;;;;5051833;28;20077;-63
2023/03/02 05:04:07;;;;;;;6.03;5.22;;;;;;;;;;5040629;28;20056;-63
2023/03/02 05:06:33;;;;;;;5.68;4.78;;;;;;;;;;5052611;28;20045;-63
2023/03/02 05:09:00;;;;;;;4.78;4.35;;;;;;;;;;5039255;28;20073;-63
2023/03/02 05:11:27;;;;;;;5.10;4.45;;;;;;;;;;5053169;28;20052;-63
2023/03/02 05:13:54;;;;;;;5.05;4.55;;;;;;;;;;5043912;28;20045;-63
2023/03/02 05:16:21;;;;;;;5.88;5.10;;;;;;;;;;5052664;28;20804;-63
2023/03/02 05:18:48;;;;;;;4.47;4.07;;;;;;;;;;5035928;28;20064;-63
2023/03/02 05:21:15;;;;;;;5.30;4.30;;;;;;;;;;5052586;28;20423;-63
2023/03/02 05:23:41;;;;;;;5.35;3.95;;;;;;;;;;5041759;28;20049;-63
2023/03/02 05:26:08;;;;;;;6.38;4.10;;;;;;;;;;5052214;28;20566;-63
2023/03/02 05:28:35;;;;;;;4.75;4.35;;;;;;;;;;5040084;28;20545;-63
2023/03/02 05:31:01;;;;;;;4.85;4.22;;;;;;;;;;5052571;28;20053;-64
2023/03/02 05:33:28;;;;;;;6.07;4.63;;;;;;;;;;5029986;28;20058;-63
2023/03/02 05:35:54;;;;;;;4.85;4.00;;;;;;;;;;5051699;28;20120;-63
2023/03/02 05:38:21;;;;;;;4.10;3.70;;;;;;;;;;5040288;28;20115;-63
2023/03/02 05:40:48;;;;;;;4.22;3.85;;;;;;;;;;5048988;28;20053;-63
2023/03/02 05:43:16;;;;;;;4.25;3.70;;;;;;;;;;5041754;28;20084;-63
2023/03/02 05:45:42;;;;;;;3.72;3.42;;;;;;;;;;5048361;28;20051;-63
2023/03/02 05:48:09;;;;;;;4.20;3.25;;;;;;;;;;5042720;28;20041;-63
2023/03/02 05:50:35;;;;;;;6.22;3.40;;;;;;;;;;5045438;28;20049;-64
2023/03/02 05:53:02;;;;;;;3.63;3.33;;;;;;;;;;5049515;28;20045;-63
2023/03/02 05:55:29;;;;;;;4.35;3.95;;;;;;;;;;5038048;28;20552;-63
2023/03/02 05:57:55;;;;;;;3.83;3.50;;;;;;;;;;5051050;28;20059;-63
2023/03/02 06:00:22;;;;;;;3.40;3.20;;;;;;;;;;5046512;28;20056;-63
2023/03/02 06:02:48;;;;;;;3.40;3.17;;;;;;;;;;5045576;28;20565;-63
2023/03/02 06:05:16;;;;;;;3.45;3.15;;;;;;;;;;5050030;28;20045;-63
2023/03/02 06:07:43;;;;;;;3.65;3.35;;;;;;;;;;5046225;28;20127;-63
2023/03/02 06:10:10;;;;;;;3.72;3.40;;;;;;;;;;5050905;28;20128;-63
2023/03/02 06:12:37;;;;;;;4.13;3.25;;;;;;;;;;5038929;28;20053;-63
2023/03/02 06:15:04;;;;;;;4.38;3.15;;;;;;;;;;5052077;28;20049;-63
2023/03/02 06:17:31;;;;;;;3.30;3.10;;;;;;;;;;5036667;28;20061;-63
2023/03/02 06:19:57;;;;;;;3.83;3.42;;;;;;;;;;5051682;28;20045;-63
2023/03/02 06:22:24;;;;;;;3.13;2.92;;;;;;;;;;5041343;28;20080;-63
2023/03/02 06:24:50;;;;;;;4.43;3.80;;;;;;;;;;5051436;28;20049;-63
2023/03/02 06:27:17;;;;;;;3.58;3.30;;;;;;;;;;5024906;28;20128;-63
2023/03/02 06:29:43;;;;;;;3.97;3.17;;;;;;;;;;5051702;28;20051;-63
2023/03/02 06:32:09;;;;;;;3.78;3.50;;;;;;;;;;5036068;28;20053;-63
2023/03/02 06:34:36;;;;;;;5.38;3.80;;;;;;;;;;5051588;28;20056;-63
2023/03/02 06:37:02;;;;;;;4.57;3.20;;;;;;;;;;5049172;28;20514;-63
2023/03/02 06:39:29;;;;;;;3.63;3.33;;;;;;;;;;5051693;28;20065;-63
2023/03/02 06:41:55;;;;;;;4.72;3.38;;;;;;;;;;5048009;28;20045;-63
2023/03/02 06:44:21;;;;;;;3.97;3.60;;;;;;;;;;5051208;28;20041;-63
2023/03/02 06:46:48;;;;;;;3.92;3.60;;;;;;;;;;5046881;28;20041;-63
2023/03/02 06:49:14;;;;;;;4.22;3.92;;;;;;;;;;5051100;28;20136;-63
2023/03/02 06:51:40;;;;;;;4.63;4.10;;;;;;;;;;5045901;28;20063;-63
2023/03/02 06:54:07;;;;;;;4.70;4.30;;;;;;;;;;5050732;28;20055;-63
2023/03/02 06:56:33;;;;;;;4.97;4.47;;;;;;;;;;5041564;28;20057;-63
2023/03/02 06:59:00;;;;;;;4.88;4.22;;;;;;;;;;5051663;28;20053;-63
2023/03/02 07:01:31;;;;;;;6.50;5.00;;;;;;;;;;5044109;28;20065;-63
2023/03/02 07:03:58;;;;;;;5.15;4.68;;;;;;;;;;5050318;28;20131;-63
2023/03/02 07:06:24;;;;;;;6.95;5.47;;;;;;;;;;5043388;28;20041;-63
2023/03/02 07:08:51;;;;;;;7.63;5.30;;;;;;;;;;5050900;28;20483;-62
2023/03/02 07:11:17;;;;;;;6.90;6.00;;;;;;;;;;5040202;28;20397;-62
2023/03/02 07:13:43;;;;;;;7.03;6.20;;;;;;;;;;5047227;28;20512;-62
2023/03/02 07:16:11;;;;;;;7.97;6.25;;;;;;;;;;5033362;28;20049;-62
2023/03/02 07:18:37;;;;;;;7.63;6.90;;;;;;;;;;5041219;28;20059;-62
2023/03/02 07:21:04;;;;;;;8.75;6.82;;;;;;;;;;5048437;28;20045;-62
2023/03/02 07:23:31;;;;;;;11.82;7.63;;;;;;;;;;5049613;28;20505;-62
2023/03/02 07:25:57;;;;;;;8.43;7.00;;;;;;;;;;5045783;28;20048;-61
2023/03/02 07:28:24;;;;;;;9.63;7.57;;;;;;;;;;5048307;28;20053;-62
2023/03/02 07:30:52;;;;;;;8.63;7.70;;;;;;;;;;5033133;28;20041;-62
2023/03/02 07:33:19;;;;;;;9.18;7.85;;;;;;;;;;5034264;28;20056;-62
2023/03/02 07:35:45;;;;;;;10.30;8.13;;;;;;;;;;5030711;28;20059;-62
2023/03/02 07:38:11;;;;;;;9.30;8.30;;;;;;;;;;5034436;28;20085;-62
2023/03/02 07:40:41;;;;;;;9.70;8.68;;;;;;;;;;5034814;28;20064;-62
2023/03/02 07:43:08;;;;;;;9.80;8.50;;;;;;;;;;5052962;28;20049;-67
2023/03/02 07:45:35;;;;;;;9.80;8.80;;;;;;;;;;5038717;28;20049;-62
2023/03/02 07:48:02;;;;;;;11.70;8.77;;;;;;;;;;5049919;28;20052;-62
2023/03/02 07:50:29;;;;;;;10.38;9.32;;;;;;;;;;5031817;28;20541;-62
2023/03/02 07:52:55;;;;;;;10.73;9.00;;;;;;;;;;5034095;28;20046;-63
2023/03/02 07:55:24;;;;;;;11.13;9.38;;;;;;;;;;5032932;28;20060;-61
2023/03/02 07:57:51;;;;;;;10.25;9.25;;;;;;;;;;5040678;28;20048;-62
2023/03/02 08:00:17;;;;;;;10.43;9.32;;;;;;;;;;5050902;28;20408;-62
2023/03/02 08:02:44;;;;;;;11.25;9.63;;;;;;;;;;5050502;28;20048;-62
2023/03/02 08:05:11;;;;;;;14.68;9.73;;;;;;;;;;5051028;28;20053;-62
2023/03/02 08:07:38;;;;;;;12.45;9.23;;;;;;;;;;5050262;28;20044;-62
2023/03/02 08:10:05;;;;;;;10.98;9.63;;;;;;;;;;5053301;28;20560;-62
2023/03/02 08:12:31;;;;;;;13.57;10.60;;;;;;;;;;5046623;28;20055;-62
2023/03/02 08:14:58;;;;;;;12.73;10.00;;;;;;;;;;5053647;28;20056;-62
2023/03/02 08:17:24;;;;;;;12.32;10.95;;;;;;;;;;5046524;28;20052;-62
2023/03/02 08:19:50;;;;;;;10.45;9.27;;;;;;;;;;5053989;28;20052;-62
2023/03/02 08:22:17;;;;;;;10.63;9.52;;;;;;;;;;5045374;28;20048;-62
2023/03/02 08:24:43;;;;;;;11.40;9.93;;;;;;;;;;5052612;28;20041;-62
2023/03/02 08:27:13;;;;;;;12.07;10.77;;;;;;;;;;5038798;28;20051;-62
2023/03/02 08:29:40;;;;;;;11.90;10.70;;;;;;;;;;5053724;28;20136;-62
2023/03/02 08:32:06;;;;;;;13.35;10.82;;;;;;;;;;5038592;28;20053;-62
2023/03/02 08:34:33;;;;;;;12.15;10.80;;;;;;;;;;5053791;28;20052;-62
2023/03/02 08:36:59;;;;;;;13.25;11.07;;;;;;;;;;5048937;28;20052;-62
2023/03/02 08:39:29;;;;;;;12.88;11.50;;;;;;;;;;5053596;28;20493;-62
2023/03/02 08:41:55;;;;;;;13.75;11.48;;;;;;;;;;5049794;28;20575;-62
2023/03/02 08:44:22;;;;;;;13.57;12.18;;;;;;;;;;5052500;28;20094;-62
2023/03/02 08:46:49;;;;;;;13.23;11.65;;;;;;;;;;5049944;28;20080;-62
2023/03/02 08:49:16;;;;;;;13.38;11.38;;;;;;;;;;5053186;28;20556;-62
2023/03/02 08:51:42;;;;;;;12.37;11.07;;;;;;;;;;5046004;28;20051;-62
2023/03/02 08:54:09;;;;;;;12.75;11.43;;;;;;;;;;5053126;28;20361;-62
2023/03/02 08:56:36;;;;;;;13.05;11.60;;;;;;;;;;5044252;28;20493;-62
2023/03/02 08:59:04;;;;;;;14.27;11.60;;;;;;;;;;5052776;28;20136;-62
2023/03/02 09:01:31;;;;;;;14.93;11.65;;;;;;;;;;5042373;28;20127;-62
2023/03/02 09:03:59;;;;;;;13.52;11.45;;;;;;;;;;5053062;28;20048;-62
2023/03/02 09:06:27;;;;;;;12.95;11.75;;;;;;;;;;5040495;28;20037;-62
2023/03/02 09:08:54;;;;;;;12.95;11.35;;;;;;;;;;5053291;28;20091;-62
2023/03/02 09:11:20;;;;;;;12.90;11.60;;;;;;;;;;5044593;28;20453;-62
2023/03/02 09:13:47;;;;;;;13.70;11.70;;;;;;;;;;5052634;28;20049;-62
2023/03/02 09:16:14;;;;;;;14.27;12.15;;;;;;;;;;5043579;28;20092;-62
2023/03/02 09:18:40;;;;;;;15.07;12.02;;;;;;;;;;5053236;28;20059;-62
2023/03/02 09:21:07;;;;;;;13.80;11.35;;;;;;;;;;5042794;28;20059;-62
2023/03/02 09:23:35;;;;;;;12.57;10.88;;;;;;;;;;5051600;28;20051;-62
2023/03/02 09:26:02;;;;;;;13.77;11.13;;;;;;;;;;5036867;28;20552;-63
2023/03/02 09:28:28;;;;;;;12.27;11.07;;;;;;;;;;5041890;28;20071;-63
2023/03/02 09:30:59;;;;;;;12.50;11.30;;;;;;;;;;5045231;28;20307;-63
2023/03/02 09:33:26;;;;;;;11.90;10.75;;;;;;;;;;5045403;28;20136;-63
2023/03/02 09:35:52;;;;;;;13.35;11.25;;;;;;;;;;5049955;28;20044;-63
2023/03/02 09:38:19;;;;;;;12.60;11.32;;;;;;;;;;5052718;28;20044;-63
2023/03/02 09:40:48;;;;;;;12.65;11.40;;;;;;;;;;5048765;28;20049;-63
2023/03/02 09:43:33;;;;;;;12.82;10.57;;;;;;;;;;5052208;28;20041;-63
2023/03/02 09:46:12;;;;;;;12.70;11.48;;;;;;;;;;5048119;28;20044;-63
2023/03/02 09:48:47;;;;;;;12.77;11.60;;;;;;;;;;5051377;28;20107;-63
2023/03/02 09:51:27;;;;;;;16.33;12.40;;;;;;;;;;5045207;28;20060;-63
2023/03/02 09:53:56;;;;;;;13.98;12.07;;;;;;;;;;5051863;28;20051;-63
2023/03/02 09:56:22;;;;;;;12.88;11.23;;;;;;;;;;5046477;28;20057;-63
2023/03/02 09:59:01;;;;;;;13.57;12.17;;;;;;;;;;5052422;28;20053;-63
2023/03/02 10:01:31;;;;;;;13.38;12.07;;;;;;;;;;5041483;28;20051;-62
2023/03/02 10:04:20;;;;;;;14.10;12.73;;;;;;;;;;5051769;28;20041;-63
2023/03/02 10:06:51;;;;;;;13.85;12.05;;;;;;;;;;5036690;28;20076;-63
2023/03/02 10:09:17;;;;;;;14.25;12.82;;;;;;;;;;5051359;28;20157;-63
2023/03/02 10:12:01;;;;;;;13.07;11.75;;;;;;;;;;5043249;28;20048;-63
2023/03/02 10:14:40;;;;;;;13.07;11.82;;;;;;;;;;5051470;28;20519;-63
2023/03/02 10:17:33;;;;;;;13.55;12.15;;;;;;;;;;5042555;28;20045;-63
2023/03/02 10:20:01;;;;;;;13.65;12.25;;;;;;;;;;5051986;28;20043;-63
2023/03/02 10:22:31;;;;;;;15.55;13.45;;;;;;;;;;5040619;28;20128;-63
2023/03/02 10:25:19;;;;;;;14.02;12.63;;;;;;;;;;5051608;28;20111;-63
2023/03/02 10:27:49;;;;;;;15.05;13.02;;;;;;;;;;5027895;28;20049;-63
2023/03/02 10:30:18;;;;;;;16.30;13.98;;;;;;;;;;5049720;28;20045;-62
2023/03/02 10:32:47;;;;;;;15.13;13.50;;;;;;;;;;5038102;28;20132;-62
2023/03/02 10:35:19;;;;;;;15.45;13.63;;;;;;;;;;5049000;28;20075;-63
2023/03/02 10:37:46;;;;;;;15.63;13.93;;;;;;;;;;5051708;28;20041;-62
2023/03/02 10:40:23;;;;;;;15.68;13.50;;;;;;;;;;5049685;28;20056;-63
2023/03/02 10:42:49;;;;;;;15.93;13.88;;;;;;;;;;5024327;28;20491;-62
2023/03/02 10:45:25;;;;;;;15.98;13.38;;;;;;;;;;5048662;28;20045;-63
2023/03/02 10:48:08;;;;;;;14.57;13.07;;;;;;;;;;5035875;28;20455;-63
2023/03/02 10:50:35;;;;;;;14.75;13.23;;;;;;;;;;5045707;28;20528;-62
2023/03/02 10:53:02;;;;;;;17.13;13.55;;;;;;;;;;5050257;28;20057;-63
2023/03/02 10:55:32;;;;;;;14.98;13.30;;;;;;;;;;5046168;28;20046;-63
2023/03/02 10:58:06;;;;;;;14.15;12.80;;;;;;;;;;5050417;28;20056;-63
2023/03/02 11:00:33;;;;;;;15.23;13.63;;;;;;;;;;5048275;28;20409;-63
2023/03/02 11:02:59;;;;;;;;;;;;;;;;;;5053382;28;20485;-63
2023/03/02 11:05:27;;;;;;;14.75;13.25;;;;;;;;;;5050805;28;19926;-63
2023/03/02 11:07:54;;;;;;;14.52;13.10;;;;;;;;;;5051861;28;20052;-63
2023/03/02 11:10:23;;;;;;;14.93;13.43;;;;;;;;;;5050309;28;20565;-63
2023/03/02 11:12:51;;;;;;;15.43;14.02;;;;;;;;;;5045244;28;20053;-63
2023/03/02 11:15:34;;;;;;;15.15;13.65;;;;;;;;;;5051748;28;20053;-63
2023/03/02 11:18:01;;;;;;;15.18;13.68;;;;;;;;;;5051232;28;20084;-63
2023/03/02 11:20:33;;;;;;;15.23;13.65;;;;;;;;;;5050772;28;20050;-63
2023/03/02 11:23:05;;;;;;;14.27;12.95;;;;;;;;;;5050400;28;20489;-63
2023/03/02 11:25:37;;;;;;;16.80;14.52;;;;;;;;;;5049935;28;20124;-63
2023/03/02 11:28:27;;;;;;;15.25;13.52;;;;;;;;;;5045913;28;20509;-63
2023/03/02 11:30:55;;;;;;;15.68;14.10;;;;;;;;;;5037671;28;20049;-63
2023/03/02 11:33:25;;;;;;;15.35;12.68;;;;;;;;;;5047258;28;20106;-63
2023/03/02 11:35:52;;;;;;;13.38;12.15;;;;;;;;;;5052666;28;20075;-63
2023/03/02 11:38:21;;;;;;;13.95;12.75;;;;;;;;;;5054285;28;20052;-63
2023/03/02 11:40:52;;;;;;;14.13;12.73;;;;;;;;;;5051277;28;20057;-63
2023/03/02 11:43:18;;;;;;;14.50;13.13;;;;;;;;;;5054351;28;20055;-63
2023/03/02 11:45:46;;;;;;;14.68;13.43;;;;;;;;;;5050768;28;20044;-63
2023/03/02 11:48:22;;;;;;;15.80;14.40;;;;;;;;;;5054717;28;20065;-62
2023/03/02 11:50:54;;;;;;;15.65;14.07;;;;;;;;;;5047855;28;20474;-62
2023/03/02 11:53:22;;;;;;;15.95;14.30;;;;;;;;;;5053970;28;20049;-62
2023/03/02 11:55:49;;;;;;;15.25;13.75;;;;;;;;;;5045485;28;20046;-62
2023/03/02 11:58:17;;;;;;;15.55;14.02;;;;;;;;;;5054413;28;20587;-62
2023/03/02 12:00:44;;;;;;;16.35;14.68;;;;;;;;;;5043750;28;20506;-62
2023/03/02 12:03:13;;;;;;;16.23;14.55;;;;;;;;;;5026233;28;20055;-62
2023/03/02 12:05:40;;;;;;;15.63;14.02;;;;;;;;;;5048170;28;20412;-63
2023/03/02 12:08:27;;;;;;;16.23;14.48;;;;;;;;;;5053348;28;20041;-63
2023/03/02 12:10:58;;;;;;;15.88;14.23;;;;;;;;;;5045627;28;20037;-63
2023/03/02 12:13:36;;;;;;;15.80;13.90;;;;;;;;;;5040284;28;20059;-63
2023/03/02 12:16:03;;;;;;;18.95;16.52;;;;;;;;;;5044733;28;20049;-63
2023/03/02 12:18:41;;;;;;;16.20;14.35;;;;;;;;;;5054068;28;20055;-63
2023/03/02 12:21:15;;;;;;;15.82;14.07;;;;;;;;;;5044086;28;20056;-63
2023/03/02 12:23:41;;;;;;;15.23;13.77;;;;;;;;;;5040459;28;20045;-63
2023/03/02 12:26:20;;;;;;;14.02;12.63;;;;;;;;;;5043853;28;20493;-63
2023/03/02 12:29:05;;;;;;;14.07;11.85;;;;;;;;;;5050158;28;20079;-64
2023/03/02 12:31:45;;;;;;;14.48;13.23;;;;;;;;;;5030293;28;20085;-64
2023/03/02 12:34:23;;;;;;;13.27;12.07;;;;;;;;;;5052784;28;20082;-64
2023/03/02 12:36:52;;;;;;;11.98;11.05;;;;;;;;;;5051193;28;20053;-63
2023/03/02 12:39:37;;;;;;;11.88;10.57;;;;;;;;;;5053838;28;20080;-63
2023/03/02 12:42:07;;;;;;;12.27;11.20;;;;;;;;;;5049639;28;20084;-63
2023/03/02 12:44:42;;;;;;;11.40;10.40;;;;;;;;;;5052909;28;20044;-63
2023/03/02 12:47:13;;;;;;;12.05;10.90;;;;;;;;;;5047622;28;20084;-64
2023/03/02 12:49:48;;;;;;;11.48;10.52;;;;;;;;;;5052956;28;20072;-64
2023/03/02 12:52:27;;;;;;;10.98;10.18;;;;;;;;;;5045072;28;20437;-64
2023/03/02 12:55:14;;;;;;;12.23;11.13;;;;;;;;;;5053197;28;20053;-64
2023/03/02 12:57:48;;;;;;;11.90;10.80;;;;;;;;;;5047052;28;20513;-64
2023/03/02 13:00:16;;;;;;;12.02;10.90;;;;;;;;;;5050704;28;20065;-64
2023/03/02 13:02:47;;;;;;;11.32;10.43;;;;;;;;;;5049119;28;20128;-64
2023/03/02 13:05:17;;;;;;;11.98;10.93;;;;;;;;;;5051041;28;20195;-64
2023/03/02 13:07:53;;;;;;;11.65;10.65;;;;;;;;;;5048341;28;20049;-64
2023/03/02 13:10:24;;;;;;;11.80;10.82;;;;;;;;;;5049039;28;20497;-64
2023/03/02 13:12:51;;;;;;;11.57;10.68;;;;;;;;;;5043974;28;20321;-64
2023/03/02 13:15:17;;;;;;;11.98;10.90;;;;;;;;;;5050019;28;20135;-64
2023/03/02 13:17:43;;;;;;;;;;;;;;;;;;5041324;28;20048;-64
2023/03/02 13:20:12;;;;;;;12.18;11.18;;;;;;;;;;5051721;28;19925;-64
2023/03/02 13:22:39;;;;;;;11.85;10.88;;;;;;;;;;5036429;28;20049;-64
2023/03/02 13:25:16;;;;;;;11.32;10.43;;;;;;;;;;5052190;28;20053;-64
2023/03/02 13:27:50;;;;;;;11.82;10.82;;;;;;;;;;5029051;28;20129;-64
2023/03/02 13:30:22;;;;;;;11.15;10.25;;;;;;;;;;5049825;28;20041;-64
2023/03/02 13:32:50;;;;;;;11.32;10.35;;;;;;;;;;5028193;28;20045;-64
2023/03/02 13:35:19;;;;;;;11.20;10.30;;;;;;;;;;5049082;28;20049;-64
2023/03/02 13:37:45;;;;;;;11.75;10.57;;;;;;;;;;5052353;28;20136;-63
2023/03/02 13:40:21;;;;;;;11.60;10.50;;;;;;;;;;5050566;28;20080;-64
2023/03/02 13:42:47;;;;;;;11.73;10.63;;;;;;;;;;5038571;28;20099;-64
2023/03/02 13:45:21;;;;;;;11.55;10.65;;;;;;;;;;5049925;28;20045;-64
2023/03/02 13:47:48;;;;;;;12.00;11.10;;;;;;;;;;5051891;28;20051;-64
2023/03/02 13:50:20;;;;;;;11.57;10.68;;;;;;;;;;5049605;28;20063;-64
2023/03/02 13:52:47;;;;;;;11.75;10.77;;;;;;;;;;5049742;28;20049;-64
2023/03/02 13:55:17;;;;;;;11.80;10.70;;;;;;;;;;5049724;28;20053;-64
2023/03/02 13:57:44;;;;;;;12.18;11.18;;;;;;;;;;5049747;28;20045;-64
2023/03/02 14:00:15;;;;;;;11.70;10.75;;;;;;;;;;5051081;28;20148;-64
2023/03/02 14:02:42;;;;;;;11.65;10.65;;;;;;;;;;5047920;28;20085;-64
2023/03/02 14:05:14;;;;;;;11.23;10.43;;;;;;;;;;5050493;28;20428;-63
2023/03/02 14:07:41;;;;;;;11.20;10.35;;;;;;;;;;5042693;28;20509;-63
2023/03/02 14:10:08;;;;;;;13.10;12.00;;;;;;;;;;5050882;28;20045;-63
2023/03/02 14:12:35;;;;;;;13.63;12.48;;;;;;;;;;5044792;28;20060;-63
2023/03/02 14:15:02;;;;;;;14.00;12.95;;;;;;;;;;5037733;28;20501;-64
2023/03/02 14:17:28;;;;;;;12.55;11.48;;;;;;;;;;5042319;28;20497;-64
2023/03/02 14:19:55;;;;;;;12.90;11.85;;;;;;;;;;5051517;28;20511;-64
2023/03/02 14:22:22;;;;;;;13.00;11.88;;;;;;;;;;5033487;28;20095;-63
2023/03/02 14:24:48;;;;;;;12.38;11.27;;;;;;;;;;5051511;28;20045;-64
2023/03/02 14:27:15;;;;;;;13.05;11.85;;;;;;;;;;5024995;28;20076;-63
2023/03/02 14:29:42;;;;;;;;;;;;;;;;;;5052075;28;20492;-63
2023/03/02 14:32:09;;;;;;;13.50;12.40;;;;;;;;;;5036614;28;19921;-65
2023/03/02 14:34:35;;;;;;;13.18;12.15;;;;;;;;;;5051391;28;20471;-63
2023/03/02 14:37:02;;;;;;;;;;;;;;;;;;5049818;28;20087;-63
2023/03/02 14:39:50;;;;;;;12.50;11.50;;;;;;;;;;5051866;28;19928;-63
2023/03/02 14:42:20;;;;;;;12.90;11.70;;;;;;;;;;5047887;28;20056;-63